sensor_id;sensor_type;location;lat;lon;timestamp;P1;durP1;ratioP1;P2;durP2;ratioP2
3953;SDS011;1991;48.682;9.030;2023-01-19T00:00:11;16.13;;;9.40;;
3953;SDS011;1991;48.682;9.030;2023-01-19T00:02:39;13.43;;;9.73;;
3953;SDS011;1991;48.682;9.030;2023-01-19T00:05:07;15.50;;;9.47;;
3953;SDS011;1991;48.682;9.030;2023-01-19T00:07:33;13.83;;;9.00;;
3953;SDS011;1991;48.682;9.030;2023-01-19T00:09:58;17.53;;;9.90;;
3953;SDS011;1991;48.682;9.030;2023-01-19T00:12:24;13.87;;;9.67;;
3953;SDS011;1991;48.682;9.030;2023-01-19T00:14:50;12.37;;;8.90;;
3953;SDS011;1991;48.682;9.030;2023-01-19T00:17:16;15.57;;;9.13;;
3953;SDS011;1991;48.682;9.030;2023-01-19T00:19:41;14.80;;;10.03;;
3953;SDS011;1991;48.682;9.030;2023-01-19T00:22:07;13.13;;;8.93;;
3953;SDS011;1991;48.682;9.030;2023-01-19T00:24:33;12.33;;;8.53;;
3953;SDS011;1991;48.682;9.030;2023-01-19T00:26:58;12.40;;;9.17;;
3953;SDS011;1991;48.682;9.030;2023-01-19T00:29:27;16.10;;;9.00;;
3953;SDS011;1991;48.682;9.030;2023-01-19T00:31:57;12.37;;;8.53;;
3953;SDS011;1991;48.682;9.030;2023-01-19T00:34:26;18.00;;;9.43;;
3953;SDS011;1991;48.682;9.030;2023-01-19T00:37:00;14.53;;;9.97;;
3953;SDS011;1991;48.682;9.030;2023-01-19T00:39:35;17.67;;;9.80;;
3953;SDS011;1991;48.682;9.030;2023-01-19T00:42:01;17.97;;;10.03;;
3953;SDS011;1991;48.682;9.030;2023-01-19T00:44:45;21.40;;;9.90;;
3953;SDS011;1991;48.682;9.030;2023-01-19T00:47:11;19.57;;;10.17;;
3953;SDS011;1991;48.682;9.030;2023-01-19T00:49:36;14.63;;;9.73;;
3953;SDS011;1991;48.682;9.030;2023-01-19T00:52:02;13.83;;;9.07;;
3953;SDS011;1991;48.682;9.030;2023-01-19T00:54:28;14.83;;;9.13;;
3953;SDS011;1991;48.682;9.030;2023-01-19T00:56:54;15.63;;;9.80;;
3953;SDS011;1991;48.682;9.030;2023-01-19T00:59:19;15.47;;;10.10;;
3953;SDS011;1991;48.682;9.030;2023-01-19T01:01:45;17.00;;;8.80;;
3953;SDS011;1991;48.682;9.030;2023-01-19T01:04:10;16.27;;;9.23;;
3953;SDS011;1991;48.682;9.030;2023-01-19T01:06:37;14.90;;;9.40;;
3953;SDS011;1991;48.682;9.030;2023-01-19T01:09:03;13.17;;;9.43;;
3953;SDS011;1991;48.682;9.030;2023-01-19T01:11:35;15.23;;;9.63;;
3953;SDS011;1991;48.682;9.030;2023-01-19T01:14:05;13.00;;;9.30;;
3953;SDS011;1991;48.682;9.030;2023-01-19T01:16:32;14.23;;;8.47;;
3953;SDS011;1991;48.682;9.030;2023-01-19T01:18:57;15.23;;;9.60;;
3953;SDS011;1991;48.682;9.030;2023-01-19T01:21:23;13.67;;;9.10;;
3953;SDS011;1991;48.682;9.030;2023-01-19T01:23:48;15.27;;;9.30;;
3953;SDS011;1991;48.682;9.030;2023-01-19T01:26:14;13.80;;;9.20;;
3953;SDS011;1991;48.682;9.030;2023-01-19T01:28:40;12.73;;;8.87;;
3953;SDS011;1991;48.682;9.030;2023-01-19T01:31:05;14.20;;;8.90;;
3953;SDS011;1991;48.682;9.030;2023-01-19T01:33:31;12.67;;;9.57;;
3953;SDS011;1991;48.682;9.030;2023-01-19T01:35:57;12.90;;;8.80;;
3953;SDS011;1991;48.682;9.030;2023-01-19T01:38:22;15.43;;;9.03;;
3953;SDS011;1991;48.682;9.030;2023-01-19T01:40:48;15.70;;;9.23;;
3953;SDS011;1991;48.682;9.030;2023-01-19T01:43:15;14.97;;;9.30;;
3953;SDS011;1991;48.682;9.030;2023-01-19T01:45:42;16.07;;;9.77;;
3953;SDS011;1991;48.682;9.030;2023-01-19T01:48:22;17.00;;;9.47;;
3953;SDS011;1991;48.682;9.030;2023-01-19T01:51:25;13.90;;;9.60;;
3953;SDS011;1991;48.682;9.030;2023-01-19T01:56:30;14.53;;;8.90;;
3953;SDS011;1991;48.682;9.030;2023-01-19T01:58:59;14.07;;;9.10;;
3953;SDS011;1991;48.682;9.030;2023-01-19T02:01:30;14.27;;;9.57;;
3953;SDS011;1991;48.682;9.030;2023-01-19T02:04:14;18.80;;;8.83;;
3953;SDS011;1991;48.682;9.030;2023-01-19T02:06:40;13.50;;;9.13;;
3953;SDS011;1991;48.682;9.030;2023-01-19T02:09:25;13.63;;;9.30;;
3953;SDS011;1991;48.682;9.030;2023-01-19T02:12:17;14.57;;;8.57;;
3953;SDS011;1991;48.682;9.030;2023-01-19T02:15:01;11.73;;;9.07;;
3953;SDS011;1991;48.682;9.030;2023-01-19T02:17:27;14.23;;;9.10;;
3953;SDS011;1991;48.682;9.030;2023-01-19T02:19:53;15.00;;;9.40;;
3953;SDS011;1991;48.682;9.030;2023-01-19T02:24:48;13.17;;;8.90;;
3953;SDS011;1991;48.682;9.030;2023-01-19T02:27:14;11.83;;;8.33;;
3953;SDS011;1991;48.682;9.030;2023-01-19T02:29:40;14.47;;;8.83;;
3953;SDS011;1991;48.682;9.030;2023-01-19T02:32:06;15.47;;;8.63;;
3953;SDS011;1991;48.682;9.030;2023-01-19T02:34:32;13.40;;;8.87;;
3953;SDS011;1991;48.682;9.030;2023-01-19T02:37:00;12.33;;;8.60;;
3953;SDS011;1991;48.682;9.030;2023-01-19T02:39:35;10.37;;;7.50;;
3953;SDS011;1991;48.682;9.030;2023-01-19T02:42:04;11.30;;;7.83;;
3953;SDS011;1991;48.682;9.030;2023-01-19T02:44:33;17.20;;;9.23;;
3953;SDS011;1991;48.682;9.030;2023-01-19T02:47:01;13.73;;;8.40;;
3953;SDS011;1991;48.682;9.030;2023-01-19T02:49:28;11.10;;;7.43;;
3953;SDS011;1991;48.682;9.030;2023-01-19T02:51:54;14.13;;;8.53;;
3953;SDS011;1991;48.682;9.030;2023-01-19T02:57:17;10.67;;;7.70;;
3953;SDS011;1991;48.682;9.030;2023-01-19T03:08:43;12.30;;;8.20;;
3953;SDS011;1991;48.682;9.030;2023-01-19T03:11:18;11.57;;;7.93;;
3953;SDS011;1991;48.682;9.030;2023-01-19T03:18:46;11.90;;;8.20;;
3953;SDS011;1991;48.682;9.030;2023-01-19T03:21:18;14.40;;;8.00;;
3953;SDS011;1991;48.682;9.030;2023-01-19T03:23:47;11.63;;;8.33;;
3953;SDS011;1991;48.682;9.030;2023-01-19T03:26:18;12.33;;;7.93;;
3953;SDS011;1991;48.682;9.030;2023-01-19T03:28:48;12.13;;;7.73;;
3953;SDS011;1991;48.682;9.030;2023-01-19T03:31:18;14.00;;;8.43;;
3953;SDS011;1991;48.682;9.030;2023-01-19T03:33:47;12.47;;;7.77;;
3953;SDS011;1991;48.682;9.030;2023-01-19T03:36:19;12.77;;;7.77;;
3953;SDS011;1991;48.682;9.030;2023-01-19T03:39:00;12.77;;;7.87;;
3953;SDS011;1991;48.682;9.030;2023-01-19T03:41:27;12.97;;;7.63;;
3953;SDS011;1991;48.682;9.030;2023-01-19T03:43:56;12.33;;;7.50;;
3953;SDS011;1991;48.682;9.030;2023-01-19T03:46:22;13.87;;;7.83;;
3953;SDS011;1991;48.682;9.030;2023-01-19T03:48:49;12.73;;;7.90;;
3953;SDS011;1991;48.682;9.030;2023-01-19T03:51:16;11.73;;;8.10;;
3953;SDS011;1991;48.682;9.030;2023-01-19T03:53:43;12.03;;;7.43;;
3953;SDS011;1991;48.682;9.030;2023-01-19T03:56:16;13.03;;;7.60;;
3953;SDS011;1991;48.682;9.030;2023-01-19T03:58:43;11.80;;;7.73;;
3953;SDS011;1991;48.682;9.030;2023-01-19T04:01:09;12.13;;;8.07;;
3953;SDS011;1991;48.682;9.030;2023-01-19T04:03:35;12.10;;;7.80;;
3953;SDS011;1991;48.682;9.030;2023-01-19T04:06:00;10.70;;;7.40;;
3953;SDS011;1991;48.682;9.030;2023-01-19T04:08:26;16.93;;;8.47;;
3953;SDS011;1991;48.682;9.030;2023-01-19T04:10:52;11.80;;;8.10;;
3953;SDS011;1991;48.682;9.030;2023-01-19T04:13:17;15.83;;;8.67;;
3953;SDS011;1991;48.682;9.030;2023-01-19T04:15:43;13.97;;;8.43;;
3953;SDS011;1991;48.682;9.030;2023-01-19T04:18:08;14.37;;;8.80;;
3953;SDS011;1991;48.682;9.030;2023-01-19T04:20:34;13.57;;;9.10;;
3953;SDS011;1991;48.682;9.030;2023-01-19T04:22:59;15.17;;;9.37;;
3953;SDS011;1991;48.682;9.030;2023-01-19T04:25:26;13.13;;;9.37;;
3953;SDS011;1991;48.682;9.030;2023-01-19T04:27:52;14.77;;;8.53;;
3953;SDS011;1991;48.682;9.030;2023-01-19T04:30:18;12.47;;;9.10;;
3953;SDS011;1991;48.682;9.030;2023-01-19T04:32:44;16.23;;;10.10;;
3953;SDS011;1991;48.682;9.030;2023-01-19T04:35:09;14.30;;;9.57;;
3953;SDS011;1991;48.682;9.030;2023-01-19T04:37:35;14.90;;;10.13;;
3953;SDS011;1991;48.682;9.030;2023-01-19T04:40:01;15.10;;;10.20;;
3953;SDS011;1991;48.682;9.030;2023-01-19T04:42:27;14.20;;;9.43;;
3953;SDS011;1991;48.682;9.030;2023-01-19T04:44:52;14.50;;;9.97;;
3953;SDS011;1991;48.682;9.030;2023-01-19T04:47:18;13.93;;;10.00;;
3953;SDS011;1991;48.682;9.030;2023-01-19T04:49:44;14.50;;;10.03;;
3953;SDS011;1991;48.682;9.030;2023-01-19T04:52:09;16.70;;;10.30;;
3953;SDS011;1991;48.682;9.030;2023-01-19T04:54:35;17.30;;;10.00;;
3953;SDS011;1991;48.682;9.030;2023-01-19T04:57:01;16.67;;;9.73;;
3953;SDS011;1991;48.682;9.030;2023-01-19T04:59:26;15.73;;;9.47;;
3953;SDS011;1991;48.682;9.030;2023-01-19T05:01:52;15.40;;;10.17;;
3953;SDS011;1991;48.682;9.030;2023-01-19T05:04:17;15.63;;;9.10;;
3953;SDS011;1991;48.682;9.030;2023-01-19T05:06:43;14.13;;;9.93;;
3953;SDS011;1991;48.682;9.030;2023-01-19T05:09:10;12.30;;;9.27;;
3953;SDS011;1991;48.682;9.030;2023-01-19T05:11:38;14.33;;;9.53;;
3953;SDS011;1991;48.682;9.030;2023-01-19T05:14:03;15.10;;;9.53;;
3953;SDS011;1991;48.682;9.030;2023-01-19T05:16:29;16.80;;;9.57;;
3953;SDS011;1991;48.682;9.030;2023-01-19T05:18:54;15.80;;;9.27;;
3953;SDS011;1991;48.682;9.030;2023-01-19T05:21:20;14.43;;;9.30;;
3953;SDS011;1991;48.682;9.030;2023-01-19T05:23:46;13.13;;;9.30;;
3953;SDS011;1991;48.682;9.030;2023-01-19T05:26:11;16.03;;;9.80;;
3953;SDS011;1991;48.682;9.030;2023-01-19T05:28:37;12.70;;;9.30;;
3953;SDS011;1991;48.682;9.030;2023-01-19T05:31:03;14.13;;;9.33;;
3953;SDS011;1991;48.682;9.030;2023-01-19T05:33:28;14.60;;;8.80;;
3953;SDS011;1991;48.682;9.030;2023-01-19T05:35:54;14.03;;;9.57;;
3953;SDS011;1991;48.682;9.030;2023-01-19T05:38:20;12.83;;;8.77;;
3953;SDS011;1991;48.682;9.030;2023-01-19T05:40:46;16.13;;;9.33;;
3953;SDS011;1991;48.682;9.030;2023-01-19T05:43:13;13.17;;;8.50;;
3953;SDS011;1991;48.682;9.030;2023-01-19T05:45:39;13.17;;;9.43;;
3953;SDS011;1991;48.682;9.030;2023-01-19T05:48:05;14.33;;;9.10;;
3953;SDS011;1991;48.682;9.030;2023-01-19T05:50:32;16.27;;;9.43;;
3953;SDS011;1991;48.682;9.030;2023-01-19T05:52:58;13.63;;;8.93;;
3953;SDS011;1991;48.682;9.030;2023-01-19T05:55:24;12.80;;;9.37;;
3953;SDS011;1991;48.682;9.030;2023-01-19T05:57:49;14.47;;;9.90;;
3953;SDS011;1991;48.682;9.030;2023-01-19T06:00:15;10.97;;;8.17;;
3953;SDS011;1991;48.682;9.030;2023-01-19T06:02:41;14.17;;;9.37;;
3953;SDS011;1991;48.682;9.030;2023-01-19T06:05:07;15.03;;;9.50;;
3953;SDS011;1991;48.682;9.030;2023-01-19T06:07:33;16.77;;;9.50;;
3953;SDS011;1991;48.682;9.030;2023-01-19T06:09:59;14.93;;;8.83;;
3953;SDS011;1991;48.682;9.030;2023-01-19T06:12:24;13.00;;;8.57;;
3953;SDS011;1991;48.682;9.030;2023-01-19T06:14:50;14.13;;;8.07;;
3953;SDS011;1991;48.682;9.030;2023-01-19T06:17:15;12.67;;;9.00;;
3953;SDS011;1991;48.682;9.030;2023-01-19T06:19:41;13.97;;;8.73;;
3953;SDS011;1991;48.682;9.030;2023-01-19T06:22:07;14.47;;;9.13;;
3953;SDS011;1991;48.682;9.030;2023-01-19T06:24:32;15.17;;;9.83;;
3953;SDS011;1991;48.682;9.030;2023-01-19T06:26:58;15.83;;;8.67;;
3953;SDS011;1991;48.682;9.030;2023-01-19T06:29:25;13.67;;;9.10;;
3953;SDS011;1991;48.682;9.030;2023-01-19T06:31:51;12.80;;;8.73;;
3953;SDS011;1991;48.682;9.030;2023-01-19T06:34:17;13.67;;;8.60;;
3953;SDS011;1991;48.682;9.030;2023-01-19T06:36:43;14.80;;;9.43;;
3953;SDS011;1991;48.682;9.030;2023-01-19T06:39:10;12.33;;;8.20;;
3953;SDS011;1991;48.682;9.030;2023-01-19T06:41:36;11.73;;;8.40;;
3953;SDS011;1991;48.682;9.030;2023-01-19T06:44:02;13.40;;;9.07;;
3953;SDS011;1991;48.682;9.030;2023-01-19T06:46:28;14.83;;;9.23;;
3953;SDS011;1991;48.682;9.030;2023-01-19T06:48:54;15.80;;;9.07;;
3953;SDS011;1991;48.682;9.030;2023-01-19T06:51:20;12.10;;;8.67;;
3953;SDS011;1991;48.682;9.030;2023-01-19T06:53:46;11.13;;;7.23;;
3953;SDS011;1991;48.682;9.030;2023-01-19T06:56:12;11.17;;;7.13;;
3953;SDS011;1991;48.682;9.030;2023-01-19T06:58:38;15.37;;;7.63;;
3953;SDS011;1991;48.682;9.030;2023-01-19T07:01:03;12.37;;;7.50;;
3953;SDS011;1991;48.682;9.030;2023-01-19T07:03:30;11.37;;;7.33;;
3953;SDS011;1991;48.682;9.030;2023-01-19T07:05:56;12.40;;;6.80;;
3953;SDS011;1991;48.682;9.030;2023-01-19T07:08:24;12.73;;;7.07;;
3953;SDS011;1991;48.682;9.030;2023-01-19T07:10:50;12.07;;;6.63;;
3953;SDS011;1991;48.682;9.030;2023-01-19T07:13:16;11.57;;;6.90;;
3953;SDS011;1991;48.682;9.030;2023-01-19T07:15:41;9.07;;;7.07;;
3953;SDS011;1991;48.682;9.030;2023-01-19T07:18:07;12.70;;;7.00;;
3953;SDS011;1991;48.682;9.030;2023-01-19T07:20:33;9.27;;;6.80;;
3953;SDS011;1991;48.682;9.030;2023-01-19T07:23:00;10.97;;;7.30;;
3953;SDS011;1991;48.682;9.030;2023-01-19T07:25:26;12.50;;;7.00;;
3953;SDS011;1991;48.682;9.030;2023-01-19T07:27:56;10.30;;;6.97;;
3953;SDS011;1991;48.682;9.030;2023-01-19T07:30:25;9.73;;;7.00;;
3953;SDS011;1991;48.682;9.030;2023-01-19T07:32:53;10.37;;;7.10;;
3953;SDS011;1991;48.682;9.030;2023-01-19T07:35:22;11.57;;;6.40;;
3953;SDS011;1991;48.682;9.030;2023-01-19T07:37:49;10.87;;;6.17;;
3953;SDS011;1991;48.682;9.030;2023-01-19T07:40:14;11.27;;;6.77;;
3953;SDS011;1991;48.682;9.030;2023-01-19T07:42:46;12.37;;;6.20;;
3953;SDS011;1991;48.682;9.030;2023-01-19T07:45:14;11.17;;;5.37;;
3953;SDS011;1991;48.682;9.030;2023-01-19T07:47:45;11.13;;;7.57;;
3953;SDS011;1991;48.682;9.030;2023-01-19T07:50:12;11.90;;;8.23;;
3953;SDS011;1991;48.682;9.030;2023-01-19T07:52:40;11.00;;;6.73;;
3953;SDS011;1991;48.682;9.030;2023-01-19T07:55:06;9.23;;;6.53;;
3953;SDS011;1991;48.682;9.030;2023-01-19T07:57:33;11.13;;;6.43;;
3953;SDS011;1991;48.682;9.030;2023-01-19T07:59:58;17.60;;;11.03;;
3953;SDS011;1991;48.682;9.030;2023-01-19T08:02:24;19.87;;;12.70;;
3953;SDS011;1991;48.682;9.030;2023-01-19T08:04:49;21.00;;;12.20;;
3953;SDS011;1991;48.682;9.030;2023-01-19T08:07:15;15.93;;;9.27;;
3953;SDS011;1991;48.682;9.030;2023-01-19T08:09:41;12.40;;;7.83;;
3953;SDS011;1991;48.682;9.030;2023-01-19T08:12:07;9.57;;;5.80;;
3953;SDS011;1991;48.682;9.030;2023-01-19T08:14:33;8.93;;;5.00;;
3953;SDS011;1991;48.682;9.030;2023-01-19T08:16:59;8.50;;;5.20;;
3953;SDS011;1991;48.682;9.030;2023-01-19T08:19:25;7.87;;;5.00;;
3953;SDS011;1991;48.682;9.030;2023-01-19T08:21:51;8.30;;;5.53;;
3953;SDS011;1991;48.682;9.030;2023-01-19T08:24:18;7.47;;;5.10;;
3953;SDS011;1991;48.682;9.030;2023-01-19T08:26:46;7.20;;;4.60;;
3953;SDS011;1991;48.682;9.030;2023-01-19T08:29:13;6.13;;;4.80;;
3953;SDS011;1991;48.682;9.030;2023-01-19T08:31:39;5.97;;;4.60;;
3953;SDS011;1991;48.682;9.030;2023-01-19T08:34:05;8.57;;;5.27;;
3953;SDS011;1991;48.682;9.030;2023-01-19T08:36:32;6.60;;;4.77;;
3953;SDS011;1991;48.682;9.030;2023-01-19T08:38:58;7.87;;;5.13;;
3953;SDS011;1991;48.682;9.030;2023-01-19T08:41:23;7.77;;;4.47;;
3953;SDS011;1991;48.682;9.030;2023-01-19T08:43:49;6.67;;;4.00;;
3953;SDS011;1991;48.682;9.030;2023-01-19T08:46:14;6.37;;;4.17;;
3953;SDS011;1991;48.682;9.030;2023-01-19T08:48:41;6.40;;;4.33;;
3953;SDS011;1991;48.682;9.030;2023-01-19T08:51:09;7.63;;;4.67;;
3953;SDS011;1991;48.682;9.030;2023-01-19T08:53:36;6.20;;;4.07;;
3953;SDS011;1991;48.682;9.030;2023-01-19T08:56:02;5.43;;;3.77;;
3953;SDS011;1991;48.682;9.030;2023-01-19T08:58:28;5.47;;;4.00;;
3953;SDS011;1991;48.682;9.030;2023-01-19T09:00:54;4.60;;;3.77;;
3953;SDS011;1991;48.682;9.030;2023-01-19T09:03:20;6.33;;;4.00;;
3953;SDS011;1991;48.682;9.030;2023-01-19T09:05:47;4.93;;;3.47;;
3953;SDS011;1991;48.682;9.030;2023-01-19T09:08:13;4.10;;;3.37;;
3953;SDS011;1991;48.682;9.030;2023-01-19T09:10:43;6.33;;;3.70;;
3953;SDS011;1991;48.682;9.030;2023-01-19T09:13:12;4.07;;;3.50;;
3953;SDS011;1991;48.682;9.030;2023-01-19T09:15:38;4.63;;;3.50;;
3953;SDS011;1991;48.682;9.030;2023-01-19T09:18:05;5.50;;;3.73;;
3953;SDS011;1991;48.682;9.030;2023-01-19T09:20:34;4.90;;;3.53;;
3953;SDS011;1991;48.682;9.030;2023-01-19T09:23:02;4.67;;;3.40;;
3953;SDS011;1991;48.682;9.030;2023-01-19T09:25:29;5.20;;;4.03;;
3953;SDS011;1991;48.682;9.030;2023-01-19T09:27:55;9.07;;;4.13;;
3953;SDS011;1991;48.682;9.030;2023-01-19T09:30:20;4.77;;;3.80;;
3953;SDS011;1991;48.682;9.030;2023-01-19T09:32:46;6.13;;;3.73;;
3953;SDS011;1991;48.682;9.030;2023-01-19T09:35:11;5.37;;;4.17;;
3953;SDS011;1991;48.682;9.030;2023-01-19T09:37:37;6.37;;;3.73;;
3953;SDS011;1991;48.682;9.030;2023-01-19T09:40:04;4.90;;;3.43;;
3953;SDS011;1991;48.682;9.030;2023-01-19T09:42:43;4.53;;;3.60;;
3953;SDS011;1991;48.682;9.030;2023-01-19T09:45:56;6.70;;;4.07;;
3953;SDS011;1991;48.682;9.030;2023-01-19T09:48:26;5.90;;;4.10;;
3953;SDS011;1991;48.682;9.030;2023-01-19T09:51:14;4.73;;;3.97;;
3953;SDS011;1991;48.682;9.030;2023-01-19T09:53:54;6.77;;;4.07;;
3953;SDS011;1991;48.682;9.030;2023-01-19T09:56:30;5.53;;;4.10;;
3953;SDS011;1991;48.682;9.030;2023-01-19T09:58:56;5.13;;;4.23;;
3953;SDS011;1991;48.682;9.030;2023-01-19T10:06:43;5.03;;;3.63;;
3953;SDS011;1991;48.682;9.030;2023-01-19T10:09:19;6.53;;;3.80;;
3953;SDS011;1991;48.682;9.030;2023-01-19T10:11:52;6.00;;;4.13;;
3953;SDS011;1991;48.682;9.030;2023-01-19T10:17:17;5.77;;;4.20;;
3953;SDS011;1991;48.682;9.030;2023-01-19T10:19:45;6.10;;;4.63;;
3953;SDS011;1991;48.682;9.030;2023-01-19T10:22:19;6.30;;;4.27;;
3953;SDS011;1991;48.682;9.030;2023-01-19T10:24:47;5.77;;;4.43;;
3953;SDS011;1991;48.682;9.030;2023-01-19T10:27:18;6.07;;;4.07;;
3953;SDS011;1991;48.682;9.030;2023-01-19T10:29:48;6.37;;;4.03;;
3953;SDS011;1991;48.682;9.030;2023-01-19T10:32:23;6.30;;;4.10;;
3953;SDS011;1991;48.682;9.030;2023-01-19T10:34:52;4.60;;;3.73;;
3953;SDS011;1991;48.682;9.030;2023-01-19T10:46:04;4.63;;;3.77;;
3953;SDS011;1991;48.682;9.030;2023-01-19T10:48:35;4.17;;;3.30;;
3953;SDS011;1991;48.682;9.030;2023-01-19T10:51:04;6.63;;;3.93;;
3953;SDS011;1991;48.682;9.030;2023-01-19T10:53:30;6.23;;;4.30;;
3953;SDS011;1991;48.682;9.030;2023-01-19T10:59:04;5.13;;;3.73;;
3953;SDS011;1991;48.682;9.030;2023-01-19T11:01:31;5.93;;;3.87;;
3953;SDS011;1991;48.682;9.030;2023-01-19T11:04:01;5.13;;;3.63;;
3953;SDS011;1991;48.682;9.030;2023-01-19T11:06:46;4.23;;;3.53;;
3953;SDS011;1991;48.682;9.030;2023-01-19T11:09:15;5.33;;;3.43;;
3953;SDS011;1991;48.682;9.030;2023-01-19T11:11:43;7.07;;;4.27;;
3953;SDS011;1991;48.682;9.030;2023-01-19T11:14:12;5.13;;;3.93;;
3953;SDS011;1991;48.682;9.030;2023-01-19T11:16:43;5.07;;;3.60;;
3953;SDS011;1991;48.682;9.030;2023-01-19T11:19:26;6.07;;;4.07;;
3953;SDS011;1991;48.682;9.030;2023-01-19T11:24:36;5.30;;;3.90;;
3953;SDS011;1991;48.682;9.030;2023-01-19T11:27:02;5.40;;;3.23;;
3953;SDS011;1991;48.682;9.030;2023-01-19T11:29:28;4.60;;;3.40;;
3953;SDS011;1991;48.682;9.030;2023-01-19T11:31:54;4.93;;;3.10;;
3953;SDS011;1991;48.682;9.030;2023-01-19T11:34:35;3.90;;;3.38;;
3953;SDS011;1991;48.682;9.030;2023-01-19T11:37:04;4.32;;;3.22;;
3953;SDS011;1991;48.682;9.030;2023-01-19T11:39:53;5.40;;;3.53;;
3953;SDS011;1991;48.682;9.030;2023-01-19T11:42:21;3.42;;;3.13;;
3953;SDS011;1991;48.682;9.030;2023-01-19T11:47:26;4.45;;;3.70;;
3953;SDS011;1991;48.682;9.030;2023-01-19T11:50:00;7.60;;;5.07;;
3953;SDS011;1991;48.682;9.030;2023-01-19T11:55:25;7.00;;;4.40;;
3953;SDS011;1991;48.682;9.030;2023-01-19T11:57:49;8.70;;;3.87;;
3953;SDS011;1991;48.682;9.030;2023-01-19T12:03:03;6.33;;;3.73;;
3953;SDS011;1991;48.682;9.030;2023-01-19T12:05:33;4.93;;;3.60;;
3953;SDS011;1991;48.682;9.030;2023-01-19T12:08:02;4.30;;;3.33;;
3953;SDS011;1991;48.682;9.030;2023-01-19T12:10:32;4.90;;;3.37;;
3953;SDS011;1991;48.682;9.030;2023-01-19T12:13:02;4.23;;;3.07;;
3953;SDS011;1991;48.682;9.030;2023-01-19T12:18:00;4.80;;;3.33;;
3953;SDS011;1991;48.682;9.030;2023-01-19T12:20:41;3.03;;;2.63;;
3953;SDS011;1991;48.682;9.030;2023-01-19T12:23:14;7.27;;;5.07;;
3953;SDS011;1991;48.682;9.030;2023-01-19T12:28:31;3.97;;;3.03;;
3953;SDS011;1991;48.682;9.030;2023-01-19T12:31:00;9.70;;;3.00;;
3953;SDS011;1991;48.682;9.030;2023-01-19T12:35:56;4.03;;;2.90;;
3953;SDS011;1991;48.682;9.030;2023-01-19T12:46:59;4.90;;;2.60;;
3953;SDS011;1991;48.682;9.030;2023-01-19T12:49:54;4.57;;;2.73;;
3953;SDS011;1991;48.682;9.030;2023-01-19T12:57:37;5.50;;;3.40;;
3953;SDS011;1991;48.682;9.030;2023-01-19T13:00:06;7.43;;;3.60;;
3953;SDS011;1991;48.682;9.030;2023-01-19T13:21:34;5.87;;;3.50;;
3953;SDS011;1991;48.682;9.030;2023-01-19T13:24:11;4.53;;;2.90;;
3953;SDS011;1991;48.682;9.030;2023-01-19T13:27:02;4.67;;;2.60;;
3953;SDS011;1991;48.682;9.030;2023-01-19T13:31:59;4.13;;;3.37;;
3953;SDS011;1991;48.682;9.030;2023-01-19T13:34:27;7.43;;;3.40;;
3953;SDS011;1991;48.682;9.030;2023-01-19T13:36:59;6.57;;;3.90;;
3953;SDS011;1991;48.682;9.030;2023-01-19T13:39:27;4.67;;;3.17;;
3953;SDS011;1991;48.682;9.030;2023-01-19T13:42:00;8.60;;;3.70;;
3953;SDS011;1991;48.682;9.030;2023-01-19T13:46:57;5.13;;;2.77;;
3953;SDS011;1991;48.682;9.030;2023-01-19T13:54:50;4.37;;;3.10;;
3953;SDS011;1991;48.682;9.030;2023-01-19T14:02:36;5.30;;;3.23;;
3953;SDS011;1991;48.682;9.030;2023-01-19T14:05:36;6.60;;;3.00;;
3953;SDS011;1991;48.682;9.030;2023-01-19T14:10:57;4.90;;;3.03;;
3953;SDS011;1991;48.682;9.030;2023-01-19T14:13:27;4.80;;;2.50;;
3953;SDS011;1991;48.682;9.030;2023-01-19T14:15:55;4.37;;;2.70;;
3953;SDS011;1991;48.682;9.030;2023-01-19T14:18:28;3.37;;;2.60;;
3953;SDS011;1991;48.682;9.030;2023-01-19T14:23:44;4.87;;;3.20;;
3953;SDS011;1991;48.682;9.030;2023-01-19T14:29:20;3.77;;;2.30;;
3953;SDS011;1991;48.682;9.030;2023-01-19T14:31:50;6.20;;;2.43;;
3953;SDS011;1991;48.682;9.030;2023-01-19T14:34:32;3.77;;;2.73;;
3953;SDS011;1991;48.682;9.030;2023-01-19T14:37:03;3.53;;;2.37;;
3953;SDS011;1991;48.682;9.030;2023-01-19T14:39:59;5.90;;;3.00;;
3953;SDS011;1991;48.682;9.030;2023-01-19T14:42:33;5.10;;;2.77;;
3953;SDS011;1991;48.682;9.030;2023-01-19T14:45:17;5.70;;;2.70;;
3953;SDS011;1991;48.682;9.030;2023-01-19T14:47:53;4.17;;;2.80;;
3953;SDS011;1991;48.682;9.030;2023-01-19T14:50:33;4.73;;;2.90;;
3953;SDS011;1991;48.682;9.030;2023-01-19T14:53:05;3.93;;;2.50;;
3953;SDS011;1991;48.682;9.030;2023-01-19T14:55:44;5.60;;;3.00;;
3953;SDS011;1991;48.682;9.030;2023-01-19T14:58:14;5.03;;;3.27;;
3953;SDS011;1991;48.682;9.030;2023-01-19T15:00:42;3.33;;;2.43;;
3953;SDS011;1991;48.682;9.030;2023-01-19T15:03:08;4.43;;;2.50;;
3953;SDS011;1991;48.682;9.030;2023-01-19T15:05:37;5.20;;;2.73;;
3953;SDS011;1991;48.682;9.030;2023-01-19T15:08:06;5.77;;;2.77;;
3953;SDS011;1991;48.682;9.030;2023-01-19T15:10:35;3.87;;;2.90;;
3953;SDS011;1991;48.682;9.030;2023-01-19T15:13:00;5.67;;;3.10;;
3953;SDS011;1991;48.682;9.030;2023-01-19T15:15:28;3.20;;;2.17;;
3953;SDS011;1991;48.682;9.030;2023-01-19T15:17:55;4.83;;;2.80;;
3953;SDS011;1991;48.682;9.030;2023-01-19T15:20:25;5.00;;;2.50;;
3953;SDS011;1991;48.682;9.030;2023-01-19T15:22:51;4.63;;;2.67;;
3953;SDS011;1991;48.682;9.030;2023-01-19T15:25:18;4.70;;;2.40;;
3953;SDS011;1991;48.682;9.030;2023-01-19T15:27:45;3.60;;;2.60;;
3953;SDS011;1991;48.682;9.030;2023-01-19T15:32:50;6.00;;;2.80;;
3953;SDS011;1991;48.682;9.030;2023-01-19T15:35:16;6.47;;;3.20;;
3953;SDS011;1991;48.682;9.030;2023-01-19T15:37:44;4.07;;;2.90;;
3953;SDS011;1991;48.682;9.030;2023-01-19T15:40:10;4.70;;;2.90;;
3953;SDS011;1991;48.682;9.030;2023-01-19T15:42:37;5.87;;;3.10;;
3953;SDS011;1991;48.682;9.030;2023-01-19T15:45:10;4.73;;;3.20;;
3953;SDS011;1991;48.682;9.030;2023-01-19T15:47:59;5.30;;;3.00;;
3953;SDS011;1991;48.682;9.030;2023-01-19T15:50:28;5.90;;;3.37;;
3953;SDS011;1991;48.682;9.030;2023-01-19T15:52:54;4.73;;;3.43;;
3953;SDS011;1991;48.682;9.030;2023-01-19T15:55:20;4.30;;;2.83;;
3953;SDS011;1991;48.682;9.030;2023-01-19T15:57:46;5.97;;;3.30;;
3953;SDS011;1991;48.682;9.030;2023-01-19T16:00:12;5.07;;;3.17;;
3953;SDS011;1991;48.682;9.030;2023-01-19T16:02:39;4.23;;;2.67;;
3953;SDS011;1991;48.682;9.030;2023-01-19T16:05:05;4.33;;;2.97;;
3953;SDS011;1991;48.682;9.030;2023-01-19T16:07:31;4.70;;;3.40;;
3953;SDS011;1991;48.682;9.030;2023-01-19T16:09:58;4.00;;;3.13;;
3953;SDS011;1991;48.682;9.030;2023-01-19T16:12:24;5.33;;;3.53;;
3953;SDS011;1991;48.682;9.030;2023-01-19T16:14:50;4.27;;;3.30;;
3953;SDS011;1991;48.682;9.030;2023-01-19T16:17:16;6.50;;;3.53;;
3953;SDS011;1991;48.682;9.030;2023-01-19T16:19:42;4.43;;;3.50;;
3953;SDS011;1991;48.682;9.030;2023-01-19T16:22:09;4.93;;;3.37;;
3953;SDS011;1991;48.682;9.030;2023-01-19T16:24:35;5.17;;;2.97;;
3953;SDS011;1991;48.682;9.030;2023-01-19T16:27:01;3.60;;;2.93;;
3953;SDS011;1991;48.682;9.030;2023-01-19T16:29:27;5.67;;;3.00;;
3953;SDS011;1991;48.682;9.030;2023-01-19T16:31:53;7.00;;;3.17;;
3953;SDS011;1991;48.682;9.030;2023-01-19T16:34:19;5.03;;;3.10;;
3953;SDS011;1991;48.682;9.030;2023-01-19T16:36:45;5.57;;;3.63;;
3953;SDS011;1991;48.682;9.030;2023-01-19T16:39:12;5.30;;;3.83;;
3953;SDS011;1991;48.682;9.030;2023-01-19T16:41:38;6.60;;;3.53;;
3953;SDS011;1991;48.682;9.030;2023-01-19T16:44:05;4.20;;;3.20;;
3953;SDS011;1991;48.682;9.030;2023-01-19T16:46:32;6.97;;;3.43;;
3953;SDS011;1991;48.682;9.030;2023-01-19T16:49:00;6.13;;;3.40;;
3953;SDS011;1991;48.682;9.030;2023-01-19T16:51:35;5.93;;;3.57;;
3953;SDS011;1991;48.682;9.030;2023-01-19T16:54:00;6.13;;;4.23;;
3953;SDS011;1991;48.682;9.030;2023-01-19T16:56:26;7.13;;;5.43;;
3953;SDS011;1991;48.682;9.030;2023-01-19T16:58:53;11.83;;;5.10;;
3953;SDS011;1991;48.682;9.030;2023-01-19T17:01:19;8.43;;;5.43;;
3953;SDS011;1991;48.682;9.030;2023-01-19T17:03:45;7.90;;;4.93;;
3953;SDS011;1991;48.682;9.030;2023-01-19T17:06:12;6.43;;;4.47;;
3953;SDS011;1991;48.682;9.030;2023-01-19T17:08:39;5.43;;;4.10;;
3953;SDS011;1991;48.682;9.030;2023-01-19T17:11:09;7.90;;;4.20;;
3953;SDS011;1991;48.682;9.030;2023-01-19T17:13:36;7.23;;;4.53;;
3953;SDS011;1991;48.682;9.030;2023-01-19T17:16:03;6.33;;;3.80;;